1266-й км

Карта отелей и гостиниц, располагающихся рядом с аэропортом 1266-й км :

1266-й км Республика Коми 62° 5' 43.98" N, 49° 23' 12.5988" E
1266-й км Республика Коми 62° 5' 43.98" N, 49° 23' 12.5988" E
Код аэродрома ИКАО
HF0U
Код аэродрома RU
ХФ0У
Координаты
N62.09555° E049.38683°
Превышение над уровнем моря
99
Основная полоса
11/29
Курс магнитный
106,9/286,9
Длина основной ВПП
20
Ширина основной ВПП
20
Покрытие основной ВПП
Твёрдое (бетон)
Освещение ВПП
Нет
Тип: 
Вертодром
Класс аэродрома: 
Принадлежность: 
ГА
Статус: 
Действующий
Сайт: 
E-mail аэродрома: 
Страна: 
Россия
Регион: 
Республика Коми
Город: 
Дополнительная информация: 
Оператор: нет данных.

Найти трансфер

С помощью этой формы Вы можете найти трансфер из аэропорта 1266-й км в город, аэропорт или вокзал:

Карта места

Javascript is required to view this map.

Погода в аэропортах:

Авиационная погода в Иркутске

Регион: 
Погода METAR: 
UIII 251830Z 30005MPS 6000 -SHSN BKN024CB M17/M19 Q1027 R30/490540 NOSIG RMK QFE725/0966
Время наблюдения
2021-01-25T18:30:00Z
Температура C
-17.0
Точка росы
-19.0
Направление ветра
300
Скорость ветра (узлы)
10
Метео видимость
3.73
Явления погоды
-SHSN
Условия полета
MVFR
Аэропорт подробнее: 

Авиационная погода в Ханты-Мансийске

Регион: 
Погода METAR: 
USHH 251830Z 14005MPS 1800 R06/P2000U SN BKN017 M25/M28 Q1026 R06/491038 TEMPO 0800 +SN OVC003
Время наблюдения
2021-01-25T18:30:00Z
Температура C
-25.0
Точка росы
-28.0
Направление ветра
140
Скорость ветра (узлы)
10
Метео видимость
1.12
Явления погоды
SN
Условия полета
IFR
Аэропорт подробнее: 

Авиационная погода в Нижневартовске

Регион: 
Погода METAR: 
USNN 251830Z 13005MPS 3700 1200NE FU NSC M40/M44 Q1038 R03/410265 NOSIG RMK QFE774
Время наблюдения
2021-01-25T18:30:00Z
Температура C
-40.0
Точка росы
-44.0
Направление ветра
130
Скорость ветра (узлы)
10
Метео видимость
2.3
Явления погоды
FU
Условия полета
IFR
Аэропорт подробнее: 

Авиационная погода в аэропорту Международный

Регион: 
Погода METAR: 
UKLL 251830Z 28008MPS 9000 -SHSN BKN007 BKN023CB M00/M01 Q0996 R31/620236 NOSIG
Время наблюдения
2021-01-25T18:30:00Z
Температура C
0.0
Точка росы
-1.0
Направление ветра
280
Скорость ветра (узлы)
16
Метео видимость
5.59
Явления погоды
-SHSN
Условия полета
IFR
Аэропорт подробнее: